Time;durP1;ratioP1;P1;durP2;ratioP2;P2;SDS_P1;SDS_P2;PMS_P1;PMS_P2;Temp;Humidity;BMP_temperature;BMP_pressure;BME280_temperature;BME280_humidity;BME280_pressure;Samples;Min_cycle;Max_cycle;Signal;HPM_P1;HPM_P2
2023/04/18 00:01:37;;;;;;;9.40;7.73;;;8.40;99.90;;;7.63;75.38;102151.66;5094324;28;20189;-76
2023/04/18 00:04:11;;;;;;;9.43;8.40;;;8.30;99.90;;;7.58;75.34;102154.66;5094264;28;20612;-76
2023/04/18 00:06:45;;;;;;;9.73;8.60;;;8.30;99.90;;;7.46;75.86;102159.97;5094196;28;20185;-76
2023/04/18 00:09:16;;;;;;;10.63;8.37;;;8.10;99.90;;;7.50;75.71;102156.16;5094086;28;20213;-76
2023/04/18 00:11:49;;;;;;;10.57;8.87;;;8.20;99.90;;;7.54;75.43;102157.63;5093804;28;20712;-76
2023/04/18 00:14:21;;;;;;;9.83;8.00;;;8.20;99.90;;;7.56;75.39;102150.38;5094050;28;20239;-76
2023/04/18 00:16:53;;;;;;;11.00;8.30;;;8.20;99.90;;;7.50;74.99;102156.97;5093919;28;20189;-76
2023/04/18 00:19:25;;;;;;;9.70;8.37;;;8.20;99.90;;;7.53;75.52;102154.09;5093965;28;20240;-76
2023/04/18 00:21:58;;;;;;;10.43;8.20;;;8.20;99.90;;;7.48;75.50;102156.25;5093974;28;20185;-76
2023/04/18 00:24:30;;;;;;;12.07;8.40;;;8.10;99.90;;;7.56;75.28;102161.91;5093896;28;20192;-76
2023/04/18 00:27:03;;;;;;;8.90;8.00;;;8.20;99.90;;;7.45;75.22;102155.59;5093800;28;20231;-76
2023/04/18 00:29:35;;;;;;;9.47;8.37;;;8.10;99.90;;;7.47;75.27;102151.88;5093787;28;20209;-76
2023/04/18 00:32:07;;;;;;;8.73;7.83;;;8.20;99.90;;;7.57;75.44;102157.41;5093837;28;20197;-76
2023/04/18 00:34:39;;;;;;;10.23;8.93;;;8.20;99.90;;;7.53;75.31;102150.59;5093793;28;20189;-76
2023/04/18 00:37:11;;;;;;;9.30;7.80;;;8.20;99.90;;;7.51;76.24;102157.84;5093372;28;20637;-76
2023/04/18 00:39:43;;;;;;;10.03;8.53;;;8.20;99.90;;;7.41;76.90;102154.09;5093778;28;20326;-76
2023/04/18 00:42:16;;;;;;;10.20;8.20;;;8.10;99.90;;;7.42;77.60;102159.34;5093430;28;20638;-76
2023/04/18 00:44:48;;;;;;;10.27;8.83;;;8.10;99.90;;;7.30;77.83;102154.84;5093400;28;20310;-76
2023/04/18 00:47:20;;;;;;;11.50;8.50;;;8.00;99.90;;;7.34;77.54;102161.66;5093598;28;20368;-76
2023/04/18 00:49:52;;;;;;;11.80;9.00;;;8.00;99.90;;;7.13;77.51;102155.13;5093571;28;20213;-76
2023/04/18 00:52:27;;;;;;;9.47;8.33;;;7.90;99.90;;;7.19;77.82;102153.88;5093639;28;20189;-76
2023/04/18 00:54:59;;;;;;;11.17;9.67;;;7.90;99.90;;;7.10;78.04;102153.53;5093620;28;20184;-76
2023/04/18 00:57:32;;;;;;;11.10;9.23;;;7.80;99.90;;;7.17;77.99;102151.31;5093430;28;20625;-76
2023/04/18 01:00:08;;;;;;;12.30;9.67;;;7.90;99.90;;;7.22;77.68;102151.88;5093100;28;20212;-75
2023/04/18 01:02:42;;;;;;;10.80;9.13;;;7.90;99.90;;;7.18;77.76;102155.69;5093517;28;20192;-76
2023/04/18 01:05:14;;;;;;;11.33;9.17;;;7.90;99.90;;;7.19;77.90;102149.41;5093548;28;20232;-76
2023/04/18 01:07:47;;;;;;;10.30;9.20;;;7.80;99.90;;;7.06;77.43;102149.38;5093732;28;20247;-76
2023/04/18 01:10:19;;;;;;;12.13;8.40;;;7.80;99.90;;;7.19;77.64;102145.88;5093382;28;20205;-76
2023/04/18 01:13:09;;;;;;;12.53;9.30;;;7.80;99.90;;;7.22;77.54;102151.88;5093439;28;20189;-76
2023/04/18 01:15:43;;;;;;;11.13;9.27;;;7.90;99.90;;;7.18;77.88;102153.03;5093077;28;20532;-76
2023/04/18 01:18:17;;;;;;;11.00;8.67;;;7.80;99.90;;;7.19;77.92;102146.75;5093318;28;20224;-76
2023/04/18 01:20:52;;;;;;;11.97;9.30;;;7.90;99.90;;;7.16;77.76;102146.94;5093614;28;20200;-76
2023/04/18 01:23:25;;;;;;;12.63;9.80;;;7.90;99.90;;;7.20;77.54;102143.09;5093065;28;20596;-76
2023/04/18 01:25:58;;;;;;;10.93;9.70;;;7.90;99.90;;;7.16;77.92;102152.25;5093050;28;20641;-76
2023/04/18 01:28:30;;;;;;;12.40;9.30;;;7.80;99.90;;;7.14;78.12;102143.53;5093255;28;20247;-76
2023/04/18 01:31:02;;;;;;;10.97;9.03;;;7.80;99.90;;;7.21;77.51;102154.63;5093470;28;20239;-76
2023/04/18 01:33:34;;;;;;;12.60;10.10;;;7.90;99.90;;;7.20;77.82;102145.75;5092970;28;20702;-76
2023/04/18 01:36:06;;;;;;;11.93;9.83;;;7.90;99.90;;;7.13;77.99;102145.34;5093229;28;20192;-76
2023/04/18 01:38:38;;;;;;;13.40;9.90;;;7.80;99.90;;;7.09;78.77;102145.63;5092791;28;20755;-76
2023/04/18 01:41:11;;;;;;;15.40;10.40;;;7.80;99.90;;;7.05;78.51;102138.84;5093174;28;20234;-76
2023/04/18 01:43:43;;;;;;;14.47;10.83;;;7.80;99.90;;;7.07;78.85;102147.56;5093151;28;20196;-76
2023/04/18 01:46:15;;;;;;;15.10;11.43;;;7.70;99.90;;;6.97;79.31;102143.81;5092815;28;20193;-76
2023/04/18 01:48:47;;;;;;;14.47;11.10;;;7.70;99.90;;;7.03;79.45;102140.72;5096216;28;20246;-76
2023/04/18 01:51:19;;;;;;;13.50;11.47;;;7.80;99.90;;;6.97;80.36;102136.69;5096749;28;20217;-76
2023/04/18 01:53:51;;;;;;;13.13;11.30;;;7.70;99.90;;;7.01;80.91;102134.66;5096737;28;20189;-76
2023/04/18 01:56:24;;;;;;;15.63;11.97;;;7.80;99.90;;;6.83;82.28;102138.56;5096422;28;20637;-76
2023/04/18 01:58:56;;;;;;;14.60;11.77;;;7.50;99.90;;;6.86;82.89;102133.03;5096371;28;20232;-76
2023/04/18 02:01:28;;;;;;;15.23;12.87;;;7.50;99.90;;;6.85;83.25;102137.50;5096537;28;20185;-76
2023/04/18 02:04:00;;;;;;;16.00;12.27;;;7.60;99.90;;;6.82;84.27;102137.69;5096539;28;20189;-76
2023/04/18 02:06:33;;;;;;;15.23;12.63;;;7.50;99.90;;;6.89;83.79;102132.81;5096510;28;20192;-76
2023/04/18 02:09:06;;;;;;;13.97;11.43;;;7.60;99.90;;;6.91;84.36;102130.91;5096092;28;20726;-76
2023/04/18 02:11:39;;;;;;;13.53;11.80;;;7.60;99.90;;;6.78;84.58;102130.88;5096321;28;20208;-76
2023/04/18 02:14:11;;;;;;;15.07;12.33;;;7.50;99.90;;;6.83;84.17;102128.75;5096043;28;20185;-77
2023/04/18 02:16:43;;;;;;;15.40;12.70;;;7.50;99.90;;;6.73;85.31;102133.00;5095976;28;20539;-77
2023/04/18 02:19:14;;;;;;;15.47;12.30;;;7.40;99.90;;;6.74;84.45;102128.53;5096217;28;20229;-77
2023/04/18 02:21:46;;;;;;;14.40;12.07;;;7.50;99.90;;;6.73;85.12;102127.69;5095927;28;20550;-77
2023/04/18 02:24:18;;;;;;;14.20;11.83;;;7.40;99.90;;;6.79;84.95;102129.06;5096187;28;20197;-77
2023/04/18 02:26:52;;;;;;;14.93;13.27;;;7.50;99.90;;;6.70;85.01;102132.34;5096106;28;20193;-77
2023/04/18 02:29:24;;;;;;;16.60;13.40;;;7.40;99.90;;;6.64;85.94;102131.78;5096104;28;20190;-76
2023/04/18 02:31:57;;;;;;;14.60;12.73;;;7.30;99.90;;;6.58;85.95;102126.88;5095965;28;20205;-76
2023/04/18 02:34:28;;;;;;;14.73;12.53;;;7.30;99.90;;;6.66;85.77;102125.50;5095673;28;20234;-76
2023/04/18 02:37:00;;;;;;;18.57;14.13;;;7.30;99.90;;;6.66;85.37;102129.03;5095520;28;20242;-76
2023/04/18 02:39:32;;;;;;;14.67;13.00;;;7.40;99.90;;;6.60;86.06;102132.97;5095927;28;20193;-76
2023/04/18 02:42:05;;;;;;;15.93;13.47;;;7.30;99.90;;;6.67;86.27;102129.88;5095507;28;20189;-76
2023/04/18 02:44:37;;;;;;;15.60;13.57;;;7.40;99.90;;;6.67;85.70;102132.56;5095453;28;20602;-76
2023/04/18 02:47:09;;;;;;;17.90;14.07;;;7.40;99.90;;;6.58;85.67;102129.53;5095704;28;20189;-77
2023/04/18 02:49:41;;;;;;;15.97;13.77;;;7.30;99.90;;;6.68;85.69;102127.09;5097388;28;20200;-76
2023/04/18 02:52:13;;;;;;;17.50;13.50;;;7.40;99.90;;;6.56;85.83;102126.13;5095540;28;20217;-76
2023/04/18 02:54:45;;;;;;;17.70;14.00;;;7.30;99.90;;;6.42;86.05;102125.31;5095583;28;20192;-76
2023/04/18 02:57:18;;;;;;;17.93;14.27;;;7.20;99.90;;;6.48;86.68;102131.09;5095482;28;20225;-76
2023/04/18 02:59:50;;;;;;;17.27;14.37;;;7.20;99.90;;;6.50;86.46;102137.19;5093985;28;20643;-76
2023/04/18 03:02:21;;;;;;;15.23;12.13;;;7.30;99.90;;;6.52;86.38;102134.41;5095418;28;20189;-76
2023/04/18 03:04:55;;;;;;;17.60;13.57;;;7.20;99.90;;;6.45;86.12;102139.28;5095335;28;20219;-76
2023/04/18 03:07:26;;;;;;;16.20;13.47;;;7.30;99.90;;;6.53;85.85;102138.78;5094955;28;20224;-76
2023/04/18 03:09:58;;;;;;;18.90;13.80;;;7.30;99.90;;;6.44;85.92;102142.03;5095310;28;20193;-76
2023/04/18 03:12:31;;;;;;;17.23;13.83;;;7.20;99.90;;;6.42;85.85;102134.16;5095195;28;20225;-76
2023/04/18 03:15:03;;;;;;;17.50;14.17;;;7.20;99.90;;;6.42;86.45;102139.47;5094870;28;20593;-77
2023/04/18 03:17:35;;;;;;;16.97;13.73;;;7.10;99.90;;;6.50;86.49;102131.88;5094844;28;20224;-77
2023/04/18 03:20:11;;;;;;;21.17;14.47;;;7.20;99.90;;;6.41;86.21;102131.59;5095148;28;20189;-77
2023/04/18 03:22:42;;;;;;;19.63;14.67;;;7.20;99.90;;;6.50;86.42;102141.66;5094734;28;20641;-76
2023/04/18 03:25:14;;;;;;;16.90;13.50;;;7.20;99.90;;;6.47;86.25;102145.34;5094965;28;20190;-76
2023/04/18 03:27:47;;;;;;;16.83;13.63;;;7.20;99.90;;;6.46;86.05;102132.16;5094552;28;20622;-76
2023/04/18 03:30:20;;;;;;;16.97;13.73;;;7.20;99.90;;;6.50;85.50;102137.19;5094909;28;20189;-76
2023/04/18 03:32:52;;;;;;;20.10;13.60;;;7.20;99.90;;;6.53;85.33;102138.78;5094827;28;20276;-76
2023/04/18 03:35:24;;;;;;;15.47;13.00;;;7.30;99.90;;;6.56;85.18;102144.75;5094501;28;20188;-76
2023/04/18 03:37:56;;;;;;;17.17;13.43;;;7.30;99.90;;;6.55;85.72;102151.03;5094679;28;20243;-76
2023/04/18 03:40:27;;;;;;;18.77;13.20;;;7.30;99.90;;;6.47;85.92;102148.00;5094400;28;20552;-76
2023/04/18 03:43:00;;;;;;;18.03;14.40;;;7.20;99.90;;;6.44;86.18;102150.00;5094362;28;20193;-76
2023/04/18 03:45:32;;;;;;;18.50;14.60;;;7.20;99.90;;;6.39;85.90;102152.97;5094628;28;20189;-76
2023/04/18 03:48:05;;;;;;;17.87;13.90;;;7.20;99.90;;;6.44;85.89;102153.53;5094493;28;20229;-76
2023/04/18 03:50:37;;;;;;;17.63;13.60;;;7.20;99.90;;;6.44;85.75;102155.31;5094683;28;20189;-76
2023/04/18 03:53:08;;;;;;;19.00;14.53;;;7.20;99.90;;;6.33;86.04;102156.03;5094475;28;20246;-76
2023/04/18 03:55:41;;;;;;;17.43;13.97;;;7.20;99.90;;;6.40;85.80;102157.34;5094683;28;20193;-76
2023/04/18 03:58:15;;;;;;;16.53;13.27;;;7.10;99.90;;;6.43;85.63;102161.63;5094126;28;20294;-76
2023/04/18 04:00:46;;;;;;;18.33;15.03;;;7.20;99.90;;;6.38;85.37;102159.25;5094347;28;20196;-76
2023/04/18 04:03:18;;;;;;;19.37;14.27;;;7.20;99.90;;;6.34;85.58;102160.38;5094039;28;20655;-76
2023/04/18 04:05:50;;;;;;;19.67;13.67;;;7.10;99.90;;;6.42;85.39;102157.25;5094282;28;20325;-76
2023/04/18 04:08:22;;;;;;;16.90;13.30;;;7.20;99.90;;;6.49;85.19;102158.56;5094117;28;20224;-76
2023/04/18 04:10:54;;;;;;;15.73;13.23;;;7.20;99.90;;;6.38;85.22;102161.91;5093794;28;20642;-76
2023/04/18 04:13:27;;;;;;;16.20;12.13;;;7.20;99.90;;;6.37;84.65;102154.88;5094151;28;20198;-76
2023/04/18 04:15:59;;;;;;;17.77;13.93;;;7.20;99.90;;;6.32;85.34;102159.66;5094111;28;20194;-76
2023/04/18 04:18:31;;;;;;;15.90;13.03;;;7.10;99.90;;;6.34;84.99;102163.03;5093938;28;20281;-76
2023/04/18 04:21:02;;;;;;;18.80;13.43;;;7.10;99.90;;;6.28;85.41;102170.56;5093989;28;20189;-76
2023/04/18 04:23:34;;;;;;;18.30;14.37;;;7.00;99.90;;;6.36;85.61;102170.94;5093969;28;20293;-76
2023/04/18 04:26:07;;;;;;;16.80;13.30;;;7.10;99.90;;;6.40;84.73;102165.34;5093943;28;20189;-76
2023/04/18 04:28:40;;;;;;;16.07;13.60;;;7.20;99.90;;;6.37;85.18;102162.84;5093776;28;20247;-76
2023/04/18 04:31:12;;;;;;;15.93;13.43;;;7.10;99.90;;;6.33;84.87;102161.38;5093716;28;20216;-76
2023/04/18 04:33:43;;;;;;;15.63;13.20;;;7.10;99.90;;;6.34;85.32;102168.38;5093844;28;20196;-76
2023/04/18 04:36:21;;;;;;;13.93;12.43;;;7.10;99.90;;;6.37;84.89;102172.66;5102233;28;20189;-79
2023/04/18 04:38:53;;;;;;;17.07;13.80;;;7.10;99.90;;;6.32;84.83;102175.59;5095468;28;20787;-76
2023/04/18 04:41:26;;;;;;;16.27;13.10;;;7.10;99.90;;;6.36;85.07;102173.59;5094027;28;20196;-76
2023/04/18 04:44:00;;;;;;;16.90;13.10;;;7.10;99.90;;;6.41;84.84;102175.00;5093759;28;20188;-76
2023/04/18 04:46:33;;;;;;;17.00;13.33;;;7.10;99.90;;;6.32;84.81;102180.94;5093946;28;20189;-76
2023/04/18 04:49:05;;;;;;;14.97;12.90;;;7.10;99.90;;;6.33;84.25;102182.66;5094647;28;20228;-76
2023/04/18 04:51:37;;;;;;;15.57;12.90;;;7.10;99.90;;;6.35;84.58;102186.03;5093582;28;20573;-75
2023/04/18 04:54:09;;;;;;;18.00;13.00;;;7.10;99.90;;;6.30;84.62;102182.81;5093628;28;20566;-76
2023/04/18 04:56:41;;;;;;;16.20;13.20;;;7.00;99.90;;;6.29;84.75;102191.75;5093595;28;20224;-76
2023/04/18 04:59:15;;;;;;;17.57;12.83;;;7.00;99.90;;;6.24;84.50;102187.66;5093345;28;20233;-76
2023/04/18 05:01:46;;;;;;;17.43;12.77;;;7.00;99.90;;;6.27;84.78;102193.66;5093266;28;20537;-76
2023/04/18 05:04:18;;;;;;;16.60;13.10;;;7.00;99.90;;;6.24;84.38;102195.66;5093359;28;20664;-76
2023/04/18 05:06:51;;;;;;;18.70;12.27;;;7.00;99.90;;;6.30;84.50;102201.44;5093520;28;20201;-76
2023/04/18 05:09:23;;;;;;;18.90;13.33;;;7.10;99.90;;;6.34;84.21;102199.44;5093480;28;20196;-75
2023/04/18 05:11:55;;;;;;;16.37;12.97;;;7.10;99.90;;;6.35;84.20;102198.50;5093346;28;20212;-75
2023/04/18 05:14:28;;;;;;;15.87;12.50;;;7.10;99.90;;;6.35;84.11;102199.34;5093169;28;20193;-75
2023/04/18 05:16:59;;;;;;;15.30;12.63;;;7.10;99.90;;;6.22;84.26;102198.41;5093415;28;20189;-75
2023/04/18 05:19:31;;;;;;;15.73;12.70;;;7.00;99.90;;;6.30;84.04;102201.44;5093527;28;20193;-75
2023/04/18 05:22:03;;;;;;;15.10;12.93;;;7.00;99.90;;;6.23;84.26;102204.59;5093561;28;20660;-75
2023/04/18 05:24:35;;;;;;;16.23;13.80;;;7.00;99.90;;;6.25;84.23;102206.19;5097324;28;20185;-75
2023/04/18 05:27:07;;;;;;;18.60;13.33;;;7.00;99.90;;;6.28;84.00;102210.47;5096916;28;20196;-76
2023/04/18 05:29:40;;;;;;;14.43;12.80;;;7.00;99.90;;;6.25;83.75;102203.53;5097328;28;20204;-76
2023/04/18 05:32:12;;;;;;;16.40;13.40;;;7.10;99.90;;;6.33;83.85;102211.03;5097158;28;20300;-76
2023/04/18 05:34:44;;;;;;;17.60;14.27;;;7.10;99.90;;;6.39;83.75;102208.84;5097198;28;20246;-76
2023/04/18 05:37:16;;;;;;;16.00;13.63;;;7.20;99.90;;;6.38;83.80;102217.75;5097092;28;20228;-76
2023/04/18 05:39:48;;;;;;;17.87;12.77;;;7.20;99.90;;;6.34;83.22;102218.91;5097107;28;20246;-76
2023/04/18 05:42:19;;;;;;;16.77;13.13;;;7.10;99.90;;;6.42;83.31;102213.97;5097082;28;20185;-76
2023/04/18 05:44:53;;;;;;;15.73;13.53;;;7.20;99.90;;;6.38;83.28;102217.75;5097050;28;20185;-76
2023/04/18 05:47:27;;;;;;;17.53;13.77;;;7.20;99.90;;;6.39;83.35;102216.81;5096984;28;20228;-76
2023/04/18 05:49:59;;;;;;;16.73;13.63;;;7.20;99.90;;;6.26;83.39;102226.53;5096559;28;20283;-76
2023/04/18 05:52:31;;;;;;;17.77;14.33;;;7.10;99.90;;;6.31;83.40;102226.22;5096468;28;20678;-76
2023/04/18 05:55:03;;;;;;;16.63;13.83;;;7.10;99.90;;;6.41;83.29;102222.88;5096485;28;20660;-76
2023/04/18 05:57:35;;;;;;;16.53;13.93;;;7.20;99.90;;;6.32;83.31;102228.81;5096642;28;20232;-75
2023/04/18 06:00:11;;;;;;;19.37;14.43;;;7.10;99.90;;;6.38;83.20;102231.06;5096348;28;20212;-75
2023/04/18 06:02:43;;;;;;;17.87;14.03;;;7.10;99.90;;;6.40;82.89;102231.84;5096360;28;20664;-76
2023/04/18 06:05:16;;;;;;;16.10;13.67;;;7.20;99.90;;;6.38;82.86;102243.50;5096490;28;20641;-76
2023/04/18 06:07:48;;;;;;;17.43;13.60;;;7.20;99.90;;;6.37;82.83;102244.47;5096488;28;20225;-75
2023/04/18 06:10:20;;;;;;;15.90;13.07;;;7.20;99.90;;;6.43;82.55;102247.59;5096527;28;20197;-76
2023/04/18 06:12:52;;;;;;;17.57;13.13;;;7.20;99.90;;;6.40;82.96;102242.47;5096378;28;20209;-76
2023/04/18 06:15:25;;;;;;;17.40;13.73;;;7.10;99.90;;;6.42;83.10;102240.56;5096048;28;20189;-76
2023/04/18 06:17:57;;;;;;;16.17;13.87;;;7.20;99.90;;;6.34;82.83;102236.66;5096314;28;20229;-62
2023/04/18 06:20:29;;;;;;;17.33;13.90;;;7.10;99.90;;;6.36;82.98;102243.63;5096580;28;20193;-76
2023/04/18 06:23:01;;;;;;;16.80;13.57;;;7.10;99.90;;;6.34;83.04;102248.16;5096231;28;20196;-76
2023/04/18 06:25:32;;;;;;;18.33;14.40;;;7.10;99.90;;;6.37;83.03;102242.66;5096398;28;20193;-75
2023/04/18 06:28:04;;;;;;;16.80;13.87;;;7.20;99.90;;;6.39;82.71;102248.75;5096022;28;20229;-75
2023/04/18 06:30:38;;;;;;;16.37;14.00;;;7.20;99.90;;;6.37;82.61;102245.31;5095732;28;20638;-75
2023/04/18 06:33:10;;;;;;;18.07;14.03;;;7.10;99.90;;;6.33;82.24;102254.47;5096072;28;20224;-75
2023/04/18 06:35:42;;;;;;;18.73;14.53;;;7.10;99.90;;;6.34;82.83;102258.81;5096020;28;20189;-75
2023/04/18 06:38:14;;;;;;;19.47;15.33;;;7.10;99.90;;;6.36;82.30;102256.06;5095860;28;20636;-75
2023/04/18 06:40:46;;;;;;;17.53;14.40;;;7.20;99.90;;;6.39;82.61;102256.72;5095554;28;20188;-75
2023/04/18 06:43:18;;;;;;;20.13;14.10;;;7.20;99.90;;;6.39;82.07;102267.38;5095543;28;20185;-75
2023/04/18 06:45:51;;;;;;;16.73;14.07;;;7.20;99.90;;;6.39;82.16;102271.81;5096019;28;20561;-75
2023/04/18 06:48:23;;;;;;;16.43;13.63;;;7.20;99.90;;;6.44;82.17;102277.69;5095666;28;20224;-75
2023/04/18 06:50:55;;;;;;;18.30;14.80;;;7.20;99.90;;;6.43;82.13;102276.00;5095671;28;20189;-75
2023/04/18 06:53:27;;;;;;;18.60;14.77;;;7.20;99.90;;;6.44;82.00;102281.22;5095570;28;20209;-75
2023/04/18 06:55:59;;;;;;;20.00;15.70;;;7.20;99.90;;;6.35;82.11;102279.16;5095634;28;20189;-75
2023/04/18 06:58:31;;;;;;;17.00;14.53;;;7.20;99.90;;;6.42;82.17;102272.50;5094924;28;20228;-75
2023/04/18 07:01:04;;;;;;;18.20;15.07;;;7.20;99.90;;;6.39;81.68;102280.66;5095123;28;20657;-75
2023/04/18 07:03:36;;;;;;;19.07;15.37;;;7.20;99.90;;;6.41;81.52;102278.75;5095463;28;20185;-75
2023/04/18 07:06:10;;;;;;;18.47;14.33;;;7.20;99.90;;;6.39;81.16;102275.34;5094805;28;20204;-75
2023/04/18 07:08:42;;;;;;;17.23;14.20;;;7.20;99.90;;;6.39;81.29;102275.34;5095196;28;20235;-75
2023/04/18 07:11:17;;;;;;;18.13;14.63;;;7.20;99.90;;;6.33;81.14;102278.41;5095270;28;20185;-75
2023/04/18 07:13:49;;;;;;;16.40;13.50;;;7.20;99.90;;;6.31;81.19;102280.28;5095135;28;20208;-75
2023/04/18 07:16:22;;;;;;;20.77;16.07;;;7.10;99.90;;;6.34;81.09;102284.53;5095002;28;20209;-75
2023/04/18 07:18:54;;;;;;;18.33;15.03;;;7.10;99.90;;;6.29;81.54;102282.19;5095036;28;20225;-75
2023/04/18 07:21:26;;;;;;;19.23;15.07;;;7.10;99.90;;;6.28;81.12;102287.59;5095064;28;20188;-75
2023/04/18 07:23:57;;;;;;;19.67;15.33;;;7.10;99.90;;;6.35;81.08;102292.44;5094956;28;20196;-75
2023/04/18 07:26:29;;;;;;;17.43;14.37;;;7.10;99.90;;;6.41;80.91;102289.41;5094967;28;20196;-75
2023/04/18 07:29:01;;;;;;;18.03;15.30;;;7.20;99.90;;;6.39;80.63;102288.66;5094892;28;20221;-75
2023/04/18 07:31:34;;;;;;;19.37;14.53;;;7.20;99.90;;;6.44;80.75;102297.19;5094547;28;20554;-75
2023/04/18 07:34:07;;;;;;;19.23;14.30;;;7.20;99.90;;;6.45;80.77;102282.94;5094748;28;20217;-75
2023/04/18 07:36:40;;;;;;;18.67;14.80;;;7.20;99.90;;;6.52;80.77;102289.59;5094775;28;20189;-75
2023/04/18 07:39:12;;;;;;;18.17;14.10;;;7.30;99.90;;;6.61;80.67;102291.66;5094928;28;20255;-75
2023/04/18 07:41:44;;;;;;;16.67;13.97;;;7.40;99.90;;;6.61;80.59;102298.78;5094677;28;20189;-75
2023/04/18 07:44:17;;;;;;;15.43;13.77;;;7.40;99.90;;;6.63;80.17;102292.44;5094611;28;20184;-75
2023/04/18 07:46:50;;;;;;;17.60;14.67;;;7.40;99.90;;;6.71;79.95;102291.94;5094236;28;20197;-75
2023/04/18 07:49:21;;;;;;;17.60;14.23;;;7.50;99.90;;;6.78;80.03;102287.09;5094243;28;20239;-75
2023/04/18 07:51:53;;;;;;;14.93;13.13;;;7.50;99.90;;;6.81;79.84;102285.09;5094464;28;20196;-75
2023/04/18 07:54:25;;;;;;;16.13;13.07;;;7.60;99.90;;;6.82;79.47;102286.78;5094409;28;20220;-75
2023/04/18 07:56:57;;;;;;;17.03;13.57;;;7.60;99.90;;;6.83;79.41;102295.63;5094335;28;20193;-75
2023/04/18 07:59:31;;;;;;;19.90;14.07;;;7.60;99.90;;;6.91;79.40;102288.84;5094221;28;20261;-75
2023/04/18 08:02:04;;;;;;;17.20;13.37;;;7.70;99.90;;;6.94;78.71;102295.78;5094301;28;20242;-75
2023/04/18 08:04:35;;;;;;;16.67;13.37;;;7.70;99.90;;;6.98;78.94;102291.97;5094245;28;20629;-75
2023/04/18 08:07:07;;;;;;;16.67;13.77;;;7.70;99.90;;;7.06;78.54;102289.66;5093658;28;20211;-75
2023/04/18 08:09:39;;;;;;;15.80;12.80;;;7.80;99.90;;;7.08;77.96;102295.75;5093829;28;20186;-74
2023/04/18 08:12:11;;;;;;;14.73;12.53;;;7.80;99.90;;;7.13;78.12;102296.28;5094172;28;20271;-75
2023/04/18 08:14:43;;;;;;;15.83;13.77;;;7.90;99.90;;;7.18;78.09;102285.34;5094073;28;20311;-74
2023/04/18 08:17:16;;;;;;;15.43;12.63;;;7.90;99.90;;;7.29;78.40;102294.34;5094062;28;20224;-74
2023/04/18 08:19:47;;;;;;;16.00;13.37;;;8.10;99.90;;;7.38;78.48;102295.53;5093713;28;20197;-76
2023/04/18 08:22:19;;;;;;;15.90;12.87;;;8.10;99.90;;;7.46;78.68;102294.06;5094059;28;20189;-76
2023/04/18 08:24:51;;;;;;;16.93;12.83;;;8.20;99.90;;;7.57;78.02;102296.00;5093679;28;20630;-75
2023/04/18 08:27:27;;;;;;;15.70;13.13;;;8.30;99.90;;;7.66;78.30;102284.72;5093651;28;20221;-74
2023/04/18 08:30:00;;;;;;;16.70;12.23;;;8.50;99.90;;;7.76;77.82;102290.28;5093850;28;20645;-74
2023/04/18 08:32:35;;;;;;;13.73;11.23;;;8.50;99.90;;;7.84;76.20;102293.28;5093900;28;20189;-74
2023/04/18 08:35:08;;;;;;;15.37;11.57;;;8.60;99.90;;;7.94;77.05;102291.69;5093790;28;20209;-75
2023/04/18 08:37:40;;;;;;;14.70;11.97;;;8.70;99.90;;;8.04;76.81;102295.44;5093462;28;20310;-74
2023/04/18 08:40:13;;;;;;;14.33;11.40;;;8.80;99.90;;;8.12;76.56;102290.41;5093839;28;20189;-75
2023/04/18 08:42:47;;;;;;;13.97;12.07;;;8.90;99.90;;;8.14;74.42;102291.16;5093785;28;20197;-76
2023/04/18 08:45:23;;;;;;;12.20;10.70;;;8.90;99.90;;;8.26;74.89;102290.31;5093798;28;20189;-75
2023/04/18 08:48:00;;;;;;;13.37;11.90;;;9.00;99.90;;;8.31;75.82;102296.22;5093692;28;20231;-74
2023/04/18 08:50:33;;;;;;;12.07;10.40;;;9.10;99.90;;;8.31;73.86;102298.88;5093709;28;20250;-75
2023/04/18 08:53:06;;;;;;;12.00;10.35;;;9.00;99.90;;;8.36;73.96;102302.06;5093288;28;20200;-75
2023/04/18 08:55:39;;;;;;;11.90;10.50;;;9.10;99.90;;;8.43;74.05;102305.16;5093871;28;20406;-74
2023/04/18 08:58:11;;;;;;;12.13;10.80;;;9.20;99.90;;;8.48;75.07;102301.22;5095584;28;20704;-75
2023/04/18 09:00:51;;;;;;;13.03;11.60;;;9.20;99.90;;;8.53;74.49;102308.88;5097796;28;20262;-76
2023/04/18 09:03:40;;;;;;;12.53;10.20;;;9.30;99.90;;;8.57;74.85;102305.03;5097461;28;20280;-74
2023/04/18 09:06:19;;;;;;;13.00;11.10;;;9.30;99.90;;;8.67;73.61;102300.75;5097974;28;20291;-74
2023/04/18 09:09:02;;;;;;;11.43;10.33;;;9.40;99.90;;;8.68;73.38;102304.25;5097423;28;20230;-74
2023/04/18 09:11:35;;;;;;;11.60;10.33;;;9.40;99.90;;;8.71;72.96;102302.22;5097674;28;20189;-76
2023/04/18 09:14:06;;;;;;;11.60;9.97;;;9.50;99.90;;;8.77;73.79;102312.47;5097038;28;20219;-75
2023/04/18 09:16:49;;;;;;;11.37;10.17;;;9.50;99.90;;;8.80;73.10;102316.75;5097509;28;20189;-76
2023/04/18 09:19:22;;;;;;;12.47;10.33;;;9.50;99.80;;;8.86;72.52;102305.63;5097138;28;20218;-75
2023/04/18 09:22:03;;;;;;;12.10;10.87;;;9.60;99.90;;;8.91;72.95;102314.13;5097441;28;20193;-75
2023/04/18 09:24:36;;;;;;;12.23;10.97;;;9.60;99.70;;;8.93;72.73;102317.56;5097593;28;20230;-75
2023/04/18 09:27:13;;;;;;;12.07;10.30;;;9.60;99.60;;;8.95;72.54;102312.94;5097202;28;20189;-75
2023/04/18 09:29:49;;;;;;;10.97;9.87;;;9.70;99.50;;;8.92;71.00;102305.16;5097194;28;20193;-75
2023/04/18 09:32:28;;;;;;;10.93;9.80;;;9.60;99.00;;;8.90;70.53;102307.09;5097214;28;20200;-75
2023/04/18 09:35:04;;;;;;;11.37;10.23;;;9.60;99.20;;;9.03;71.25;102307.91;5096614;28;20303;-75
2023/04/18 09:37:38;;;;;;;10.53;9.37;;;9.70;99.20;;;8.95;69.64;102312.94;5096948;28;20229;-75
2023/04/18 09:40:20;;;;;;;9.93;8.77;;;9.70;98.20;;;9.06;69.96;102313.88;5097337;28;20200;-76
2023/04/18 09:42:55;;;;;;;11.07;9.37;;;9.80;98.40;;;9.23;70.30;102309.09;5096991;28;20189;-76
2023/04/18 09:45:28;;;;;;;11.87;9.13;;;9.90;98.70;;;9.39;70.60;102305.19;5096569;28;20656;-75
2023/04/18 09:48:00;;;;;;;11.03;8.63;;;10.10;98.90;;;9.60;69.54;102303.56;5096741;28;20224;-75
2023/04/18 09:50:36;;;;;;;9.67;8.60;;;10.30;98.30;;;9.60;70.57;102303.56;5096564;28;20224;-75
2023/04/18 09:53:12;;;;;;;10.10;8.83;;;10.30;98.10;;;9.52;67.64;102305.97;5096839;28;20197;-75
2023/04/18 09:55:46;;;;;;;9.57;8.57;;;10.30;97.60;;;9.51;69.65;102308.78;5096713;28;20306;-75
2023/04/18 09:58:21;;;;;;;10.03;9.03;;;10.20;97.80;;;9.51;69.09;102309.63;5096385;28;20235;-75
2023/04/18 10:00:56;;;;;;;13.67;8.90;;;10.20;97.80;;;9.48;67.95;102301.84;5096672;28;20200;-75
2023/04/18 10:03:41;;;;;;;9.93;8.90;;;10.20;97.50;;;9.42;67.40;102307.63;5096641;28;20200;-75
2023/04/18 10:06:16;;;;;;;9.97;8.13;;;10.10;97.00;;;9.39;67.28;102305.19;5096567;28;20246;-75
2023/04/18 10:08:51;;;;;;;9.33;8.30;;;10.10;96.90;;;9.44;68.61;102308.38;5095896;28;20235;-75
2023/04/18 10:11:23;;;;;;;9.40;7.80;;;10.10;97.50;;;9.48;67.07;102303.66;5096511;28;20192;-75
2023/04/18 10:14:02;;;;;;;9.63;8.47;;;10.10;97.00;;;9.54;68.38;102304.03;5096927;28;20186;-75
2023/04/18 10:16:34;;;;;;;8.30;7.50;;;10.20;97.50;;;9.56;67.07;102302.09;5096387;28;20196;-75
2023/04/18 10:19:25;;;;;;;9.83;7.53;;;10.30;96.80;;;9.57;65.91;102303.81;5096278;28;20228;-75
2023/04/18 10:22:01;;;;;;;8.97;7.43;;;10.30;96.30;;;9.64;67.45;102310.41;5096296;28;20189;-76
2023/04/18 10:24:55;;;;;;;9.37;8.10;;;10.30;96.90;;;9.64;65.32;102307.72;5096228;28;20184;-75
2023/04/18 10:28:00;;;;;;;8.67;7.20;;;10.40;96.10;;;9.73;65.67;102313.31;5096169;28;20225;-75
2023/04/18 10:31:02;;;;;;;9.40;7.57;;;10.40;96.20;;;9.64;65.04;102302.38;5095859;28;20630;-75
2023/04/18 10:33:36;;;;;;;8.87;7.40;;;10.30;95.80;;;9.73;67.04;102307.97;5096090;28;20271;-75
2023/04/18 10:36:20;;;;;;;8.63;6.97;;;10.40;96.60;;;9.81;66.62;102310.94;5095870;28;20738;-75
2023/04/18 10:38:59;;;;;;;7.37;6.63;;;10.50;96.60;;;9.85;64.75;102301.69;5095897;28;20228;-75
2023/04/18 10:41:34;;;;;;;7.77;6.57;;;10.50;95.80;;;9.92;64.75;102300.25;5096252;28;20195;-75